sensor_id;sensor_type;location;lat;lon;timestamp;temperature;humidity
34542;DHT22;20784;51.332;12.410;2023-04-25T00:00:22;9.30;99.90
34542;DHT22;20784;51.332;12.410;2023-04-25T00:02:50;9.30;99.90
34542;DHT22;20784;51.332;12.410;2023-04-25T00:05:16;9.40;99.90
34542;DHT22;20784;51.332;12.410;2023-04-25T00:07:45;9.40;99.90
34542;DHT22;20784;51.332;12.410;2023-04-25T00:10:11;9.40;99.90
34542;DHT22;20784;51.332;12.410;2023-04-25T00:12:37;9.40;99.90
34542;DHT22;20784;51.332;12.410;2023-04-25T00:15:03;9.40;99.90
34542;DHT22;20784;51.332;12.410;2023-04-25T00:17:29;9.40;99.90
34542;DHT22;20784;51.332;12.410;2023-04-25T00:19:54;9.30;99.90
34542;DHT22;20784;51.332;12.410;2023-04-25T00:22:24;9.20;99.90
34542;DHT22;20784;51.332;12.410;2023-04-25T00:24:50;9.30;99.90
34542;DHT22;20784;51.332;12.410;2023-04-25T00:27:15;9.20;99.90
34542;DHT22;20784;51.332;12.410;2023-04-25T00:29:41;9.30;99.90
34542;DHT22;20784;51.332;12.410;2023-04-25T00:32:16;9.10;99.90
34542;DHT22;20784;51.332;12.410;2023-04-25T00:34:47;9.10;99.90
34542;DHT22;20784;51.332;12.410;2023-04-25T00:37:15;9.10;99.90
34542;DHT22;20784;51.332;12.410;2023-04-25T00:39:48;9.10;99.90
34542;DHT22;20784;51.332;12.410;2023-04-25T00:42:30;9.10;99.90
34542;DHT22;20784;51.332;12.410;2023-04-25T00:44:56;8.90;99.90
34542;DHT22;20784;51.332;12.410;2023-04-25T00:47:22;8.90;99.90
34542;DHT22;20784;51.332;12.410;2023-04-25T00:49:52;9.00;99.90
34542;DHT22;20784;51.332;12.410;2023-04-25T00:52:21;9.00;99.90
34542;DHT22;20784;51.332;12.410;2023-04-25T00:54:47;8.90;99.90
34542;DHT22;20784;51.332;12.410;2023-04-25T00:57:13;8.80;99.90
34542;DHT22;20784;51.332;12.410;2023-04-25T00:59:43;8.80;99.90
34542;DHT22;20784;51.332;12.410;2023-04-25T01:02:23;8.80;99.90
34542;DHT22;20784;51.332;12.410;2023-04-25T01:04:49;8.70;99.90
34542;DHT22;20784;51.332;12.410;2023-04-25T01:07:14;8.70;99.90
34542;DHT22;20784;51.332;12.410;2023-04-25T01:09:41;8.70;99.90
34542;DHT22;20784;51.332;12.410;2023-04-25T01:12:09;8.80;99.90
34542;DHT22;20784;51.332;12.410;2023-04-25T01:14:35;8.70;99.90
34542;DHT22;20784;51.332;12.410;2023-04-25T01:17:01;8.50;99.90
34542;DHT22;20784;51.332;12.410;2023-04-25T01:19:29;8.50;99.90
34542;DHT22;20784;51.332;12.410;2023-04-25T01:21:56;8.50;99.90
34542;DHT22;20784;51.332;12.410;2023-04-25T01:24:28;8.50;99.90
34542;DHT22;20784;51.332;12.410;2023-04-25T01:26:54;8.50;99.90
34542;DHT22;20784;51.332;12.410;2023-04-25T01:29:24;8.50;99.90
34542;DHT22;20784;51.332;12.410;2023-04-25T01:31:55;8.50;99.90
34542;DHT22;20784;51.332;12.410;2023-04-25T01:34:28;8.50;99.90
34542;DHT22;20784;51.332;12.410;2023-04-25T01:36:54;8.50;99.90
34542;DHT22;20784;51.332;12.410;2023-04-25T01:39:28;8.50;99.90
34542;DHT22;20784;51.332;12.410;2023-04-25T01:42:02;8.50;99.90
34542;DHT22;20784;51.332;12.410;2023-04-25T01:44:40;8.50;99.90
34542;DHT22;20784;51.332;12.410;2023-04-25T01:47:13;8.50;99.90
34542;DHT22;20784;51.332;12.410;2023-04-25T01:49:41;8.40;99.90
34542;DHT22;20784;51.332;12.410;2023-04-25T01:52:10;8.50;99.90
34542;DHT22;20784;51.332;12.410;2023-04-25T01:54:35;8.40;99.90
34542;DHT22;20784;51.332;12.410;2023-04-25T01:57:09;8.40;99.90
34542;DHT22;20784;51.332;12.410;2023-04-25T01:59:37;8.30;99.90
34542;DHT22;20784;51.332;12.410;2023-04-25T02:02:03;8.10;99.90
34542;DHT22;20784;51.332;12.410;2023-04-25T02:04:32;8.20;99.90
34542;DHT22;20784;51.332;12.410;2023-04-25T02:06:58;8.30;99.90
34542;DHT22;20784;51.332;12.410;2023-04-25T02:09:24;8.20;99.90
34542;DHT22;20784;51.332;12.410;2023-04-25T02:11:50;8.10;99.90
34542;DHT22;20784;51.332;12.410;2023-04-25T02:14:21;8.10;99.90
34542;DHT22;20784;51.332;12.410;2023-04-25T02:16:47;8.10;99.90
34542;DHT22;20784;51.332;12.410;2023-04-25T02:19:12;8.10;99.90
34542;DHT22;20784;51.332;12.410;2023-04-25T02:21:38;8.20;99.90
34542;DHT22;20784;51.332;12.410;2023-04-25T02:24:07;8.20;99.90
34542;DHT22;20784;51.332;12.410;2023-04-25T02:26:36;8.10;99.90
34542;DHT22;20784;51.332;12.410;2023-04-25T02:29:02;8.00;99.90
34542;DHT22;20784;51.332;12.410;2023-04-25T02:31:27;8.10;99.90
34542;DHT22;20784;51.332;12.410;2023-04-25T02:33:53;8.00;99.90
34542;DHT22;20784;51.332;12.410;2023-04-25T02:36:18;8.00;99.90
34542;DHT22;20784;51.332;12.410;2023-04-25T02:38:52;8.00;99.90
34542;DHT22;20784;51.332;12.410;2023-04-25T02:41:22;8.00;99.90
34542;DHT22;20784;51.332;12.410;2023-04-25T02:43:47;7.90;99.90
34542;DHT22;20784;51.332;12.410;2023-04-25T02:46:13;7.90;99.90
34542;DHT22;20784;51.332;12.410;2023-04-25T02:48:39;7.90;99.90
34542;DHT22;20784;51.332;12.410;2023-04-25T02:51:05;7.90;99.90
34542;DHT22;20784;51.332;12.410;2023-04-25T02:53:31;7.90;99.90
34542;DHT22;20784;51.332;12.410;2023-04-25T02:55:56;8.00;99.90
34542;DHT22;20784;51.332;12.410;2023-04-25T02:58:24;7.90;99.90
34542;DHT22;20784;51.332;12.410;2023-04-25T03:00:59;7.90;99.90
34542;DHT22;20784;51.332;12.410;2023-04-25T03:03:27;7.90;99.90
34542;DHT22;20784;51.332;12.410;2023-04-25T03:05:55;7.90;99.90
34542;DHT22;20784;51.332;12.410;2023-04-25T03:08:21;7.80;99.90
34542;DHT22;20784;51.332;12.410;2023-04-25T03:10:49;7.90;99.90
34542;DHT22;20784;51.332;12.410;2023-04-25T03:13:22;7.80;99.90
34542;DHT22;20784;51.332;12.410;2023-04-25T03:15:51;7.70;99.90
34542;DHT22;20784;51.332;12.410;2023-04-25T03:18:20;7.80;99.90
34542;DHT22;20784;51.332;12.410;2023-04-25T03:20:45;7.80;99.90
34542;DHT22;20784;51.332;12.410;2023-04-25T03:23:12;7.70;99.90
34542;DHT22;20784;51.332;12.410;2023-04-25T03:25:40;7.70;99.90
34542;DHT22;20784;51.332;12.410;2023-04-25T03:28:14;7.60;99.90
34542;DHT22;20784;51.332;12.410;2023-04-25T03:30:42;7.60;99.90
34542;DHT22;20784;51.332;12.410;2023-04-25T03:33:08;7.60;99.90
34542;DHT22;20784;51.332;12.410;2023-04-25T03:35:33;7.60;99.90
34542;DHT22;20784;51.332;12.410;2023-04-25T03:38:10;7.50;99.90
34542;DHT22;20784;51.332;12.410;2023-04-25T03:40:35;7.50;99.90
34542;DHT22;20784;51.332;12.410;2023-04-25T03:43:10;7.50;99.90
34542;DHT22;20784;51.332;12.410;2023-04-25T03:45:45;7.50;99.90
34542;DHT22;20784;51.332;12.410;2023-04-25T03:48:18;7.40;99.90
34542;DHT22;20784;51.332;12.410;2023-04-25T03:50:52;7.40;99.90
34542;DHT22;20784;51.332;12.410;2023-04-25T03:53:20;7.40;99.90
34542;DHT22;20784;51.332;12.410;2023-04-25T03:55:51;7.40;99.90
34542;DHT22;20784;51.332;12.410;2023-04-25T03:58:17;7.50;99.90
34542;DHT22;20784;51.332;12.410;2023-04-25T04:00:53;7.50;99.90
34542;DHT22;20784;51.332;12.410;2023-04-25T04:03:21;7.50;99.90
34542;DHT22;20784;51.332;12.410;2023-04-25T04:05:47;7.40;99.90
34542;DHT22;20784;51.332;12.410;2023-04-25T04:15:27;7.70;99.90
34542;DHT22;20784;51.332;12.410;2023-04-25T04:17:58;7.60;99.90
34542;DHT22;20784;51.332;12.410;2023-04-25T04:20:30;7.60;99.90
34542;DHT22;20784;51.332;12.410;2023-04-25T04:22:59;7.60;99.90
34542;DHT22;20784;51.332;12.410;2023-04-25T04:25:27;7.70;99.90
34542;DHT22;20784;51.332;12.410;2023-04-25T04:27:57;7.70;99.90
34542;DHT22;20784;51.332;12.410;2023-04-25T04:30:23;7.70;99.90
34542;DHT22;20784;51.332;12.410;2023-04-25T04:32:50;7.70;99.90
34542;DHT22;20784;51.332;12.410;2023-04-25T04:35:19;7.70;99.90
34542;DHT22;20784;51.332;12.410;2023-04-25T04:37:47;7.70;99.90
34542;DHT22;20784;51.332;12.410;2023-04-25T04:40:14;7.70;99.90
34542;DHT22;20784;51.332;12.410;2023-04-25T04:42:43;7.80;99.90
34542;DHT22;20784;51.332;12.410;2023-04-25T04:45:10;7.80;99.90
34542;DHT22;20784;51.332;12.410;2023-04-25T04:47:40;7.90;99.90
34542;DHT22;20784;51.332;12.410;2023-04-25T04:50:07;7.80;99.90
34542;DHT22;20784;51.332;12.410;2023-04-25T04:52:37;7.90;99.90
34542;DHT22;20784;51.332;12.410;2023-04-25T04:55:04;7.90;99.90
34542;DHT22;20784;51.332;12.410;2023-04-25T04:57:30;7.90;99.90
34542;DHT22;20784;51.332;12.410;2023-04-25T04:59:58;7.90;99.90
34542;DHT22;20784;51.332;12.410;2023-04-25T05:02:24;7.90;99.90
34542;DHT22;20784;51.332;12.410;2023-04-25T05:04:53;7.90;99.90
34542;DHT22;20784;51.332;12.410;2023-04-25T05:07:19;7.90;99.90
34542;DHT22;20784;51.332;12.410;2023-04-25T05:09:47;8.00;99.90
34542;DHT22;20784;51.332;12.410;2023-04-25T05:12:19;8.00;99.90
34542;DHT22;20784;51.332;12.410;2023-04-25T05:14:44;8.00;99.90
34542;DHT22;20784;51.332;12.410;2023-04-25T05:17:10;8.00;99.90
34542;DHT22;20784;51.332;12.410;2023-04-25T05:19:39;8.00;99.90
34542;DHT22;20784;51.332;12.410;2023-04-25T05:22:05;7.90;99.90
34542;DHT22;20784;51.332;12.410;2023-04-25T05:24:30;8.00;99.90
34542;DHT22;20784;51.332;12.410;2023-04-25T05:26:56;8.10;99.90
34542;DHT22;20784;51.332;12.410;2023-04-25T05:29:22;8.20;99.90
34542;DHT22;20784;51.332;12.410;2023-04-25T05:31:54;8.20;99.90
34542;DHT22;20784;51.332;12.410;2023-04-25T05:34:19;8.20;99.90
34542;DHT22;20784;51.332;12.410;2023-04-25T05:36:48;8.30;99.90
34542;DHT22;20784;51.332;12.410;2023-04-25T05:39:18;8.20;99.90
34542;DHT22;20784;51.332;12.410;2023-04-25T05:41:43;8.30;99.90
34542;DHT22;20784;51.332;12.410;2023-04-25T05:44:09;8.10;99.90
34542;DHT22;20784;51.332;12.410;2023-04-25T05:46:38;8.20;99.90
34542;DHT22;20784;51.332;12.410;2023-04-25T05:49:04;8.30;99.90
34542;DHT22;20784;51.332;12.410;2023-04-25T05:51:29;8.30;99.90
34542;DHT22;20784;51.332;12.410;2023-04-25T05:53:55;8.30;99.90
34542;DHT22;20784;51.332;12.410;2023-04-25T05:56:20;8.50;99.90
34542;DHT22;20784;51.332;12.410;2023-04-25T05:58:46;8.60;99.90
34542;DHT22;20784;51.332;12.410;2023-04-25T06:01:12;8.70;99.90
34542;DHT22;20784;51.332;12.410;2023-04-25T06:03:37;8.70;99.90
34542;DHT22;20784;51.332;12.410;2023-04-25T06:06:03;8.70;99.90
34542;DHT22;20784;51.332;12.410;2023-04-25T06:08:29;8.90;99.90
34542;DHT22;20784;51.332;12.410;2023-04-25T06:10:55;8.90;99.90
34542;DHT22;20784;51.332;12.410;2023-04-25T06:13:21;8.90;99.90
34542;DHT22;20784;51.332;12.410;2023-04-25T06:15:46;8.90;99.90
34542;DHT22;20784;51.332;12.410;2023-04-25T06:18:12;8.90;99.90
34542;DHT22;20784;51.332;12.410;2023-04-25T06:20:37;9.00;99.90
34542;DHT22;20784;51.332;12.410;2023-04-25T06:23:03;9.10;99.90
34542;DHT22;20784;51.332;12.410;2023-04-25T06:25:29;9.30;99.90
34542;DHT22;20784;51.332;12.410;2023-04-25T06:27:57;9.40;99.90
34542;DHT22;20784;51.332;12.410;2023-04-25T06:30:23;9.40;99.90
34542;DHT22;20784;51.332;12.410;2023-04-25T06:32:54;9.60;99.90
34542;DHT22;20784;51.332;12.410;2023-04-25T06:35:20;9.70;99.90
34542;DHT22;20784;51.332;12.410;2023-04-25T06:37:46;9.90;99.90
34542;DHT22;20784;51.332;12.410;2023-04-25T06:40:15;10.00;99.90
34542;DHT22;20784;51.332;12.410;2023-04-25T06:42:42;10.10;99.90
34542;DHT22;20784;51.332;12.410;2023-04-25T06:45:08;10.20;99.90
34542;DHT22;20784;51.332;12.410;2023-04-25T06:47:34;10.00;99.90
34542;DHT22;20784;51.332;12.410;2023-04-25T06:50:00;10.00;99.90
34542;DHT22;20784;51.332;12.410;2023-04-25T06:52:25;10.00;99.90
34542;DHT22;20784;51.332;12.410;2023-04-25T06:54:51;9.90;99.90
34542;DHT22;20784;51.332;12.410;2023-04-25T06:57:16;9.90;99.90
34542;DHT22;20784;51.332;12.410;2023-04-25T06:59:42;10.00;99.90
34542;DHT22;20784;51.332;12.410;2023-04-25T07:02:10;10.00;99.90
34542;DHT22;20784;51.332;12.410;2023-04-25T07:04:43;10.10;99.90
34542;DHT22;20784;51.332;12.410;2023-04-25T07:07:11;10.30;99.90
34542;DHT22;20784;51.332;12.410;2023-04-25T07:09:36;10.20;99.90
34542;DHT22;20784;51.332;12.410;2023-04-25T07:12:02;10.30;99.90
34542;DHT22;20784;51.332;12.410;2023-04-25T07:14:28;10.20;99.90
34542;DHT22;20784;51.332;12.410;2023-04-25T07:16:54;10.20;99.90
34542;DHT22;20784;51.332;12.410;2023-04-25T07:19:22;10.10;99.90
34542;DHT22;20784;51.332;12.410;2023-04-25T07:21:56;10.00;99.90
34542;DHT22;20784;51.332;12.410;2023-04-25T07:24:24;10.10;99.90
34542;DHT22;20784;51.332;12.410;2023-04-25T07:26:50;10.00;99.90
34542;DHT22;20784;51.332;12.410;2023-04-25T07:29:18;10.00;99.90
34542;DHT22;20784;51.332;12.410;2023-04-25T07:31:44;10.00;99.90
34542;DHT22;20784;51.332;12.410;2023-04-25T07:34:10;9.90;99.90
34542;DHT22;20784;51.332;12.410;2023-04-25T07:36:38;9.90;99.90
34542;DHT22;20784;51.332;12.410;2023-04-25T07:39:04;9.90;99.90
34542;DHT22;20784;51.332;12.410;2023-04-25T07:41:29;9.90;99.90
34542;DHT22;20784;51.332;12.410;2023-04-25T07:43:55;10.00;99.90
34542;DHT22;20784;51.332;12.410;2023-04-25T07:46:21;10.00;99.90
34542;DHT22;20784;51.332;12.410;2023-04-25T07:48:46;10.00;99.90
34542;DHT22;20784;51.332;12.410;2023-04-25T07:51:12;10.00;99.90
34542;DHT22;20784;51.332;12.410;2023-04-25T07:53:40;9.90;99.90
34542;DHT22;20784;51.332;12.410;2023-04-25T07:56:06;9.90;99.90
34542;DHT22;20784;51.332;12.410;2023-04-25T07:58:32;9.90;99.90
34542;DHT22;20784;51.332;12.410;2023-04-25T08:00:57;9.90;99.90
34542;DHT22;20784;51.332;12.410;2023-04-25T08:03:35;9.90;99.90
34542;DHT22;20784;51.332;12.410;2023-04-25T08:06:04;9.90;99.90
34542;DHT22;20784;51.332;12.410;2023-04-25T08:08:30;9.80;99.90
34542;DHT22;20784;51.332;12.410;2023-04-25T08:10:56;9.70;99.90
34542;DHT22;20784;51.332;12.410;2023-04-25T08:13:21;9.50;99.90
34542;DHT22;20784;51.332;12.410;2023-04-25T08:15:47;9.50;99.90
34542;DHT22;20784;51.332;12.410;2023-04-25T08:18:12;9.40;99.90
34542;DHT22;20784;51.332;12.410;2023-04-25T08:20:38;9.30;99.90
34542;DHT22;20784;51.332;12.410;2023-04-25T08:23:03;9.30;99.90
34542;DHT22;20784;51.332;12.410;2023-04-25T08:25:29;9.30;99.90
34542;DHT22;20784;51.332;12.410;2023-04-25T08:27:54;9.40;99.90
34542;DHT22;20784;51.332;12.410;2023-04-25T08:30:21;9.50;99.90
34542;DHT22;20784;51.332;12.410;2023-04-25T08:32:46;9.50;99.90
34542;DHT22;20784;51.332;12.410;2023-04-25T08:35:12;9.50;99.90
34542;DHT22;20784;51.332;12.410;2023-04-25T08:37:38;9.60;99.90
34542;DHT22;20784;51.332;12.410;2023-04-25T08:40:04;9.60;99.90
34542;DHT22;20784;51.332;12.410;2023-04-25T08:42:33;9.70;99.90
34542;DHT22;20784;51.332;12.410;2023-04-25T08:45:01;9.90;99.90
34542;DHT22;20784;51.332;12.410;2023-04-25T08:47:27;9.90;99.90
34542;DHT22;20784;51.332;12.410;2023-04-25T08:49:55;10.00;99.90
34542;DHT22;20784;51.332;12.410;2023-04-25T08:52:28;10.10;99.90
34542;DHT22;20784;51.332;12.410;2023-04-25T08:54:57;10.10;99.90
34542;DHT22;20784;51.332;12.410;2023-04-25T08:57:23;10.10;99.90
34542;DHT22;20784;51.332;12.410;2023-04-25T08:59:49;10.10;99.90
34542;DHT22;20784;51.332;12.410;2023-04-25T09:02:15;10.10;99.90
34542;DHT22;20784;51.332;12.410;2023-04-25T09:04:43;10.40;99.90
34542;DHT22;20784;51.332;12.410;2023-04-25T09:07:09;10.20;99.90
34542;DHT22;20784;51.332;12.410;2023-04-25T09:09:35;10.10;99.90
34542;DHT22;20784;51.332;12.410;2023-04-25T09:12:01;10.00;99.90
34542;DHT22;20784;51.332;12.410;2023-04-25T09:14:27;10.20;99.90
34542;DHT22;20784;51.332;12.410;2023-04-25T09:17:04;10.30;99.90
34542;DHT22;20784;51.332;12.410;2023-04-25T09:19:32;10.50;99.90
34542;DHT22;20784;51.332;12.410;2023-04-25T09:22:00;10.70;99.90
34542;DHT22;20784;51.332;12.410;2023-04-25T09:24:45;11.00;99.90
34542;DHT22;20784;51.332;12.410;2023-04-25T09:27:19;11.00;99.90
34542;DHT22;20784;51.332;12.410;2023-04-25T09:29:48;11.00;99.90
34542;DHT22;20784;51.332;12.410;2023-04-25T09:32:23;11.10;99.90
34542;DHT22;20784;51.332;12.410;2023-04-25T09:34:50;11.30;99.90
34542;DHT22;20784;51.332;12.410;2023-04-25T09:39:53;11.30;99.90
34542;DHT22;20784;51.332;12.410;2023-04-25T09:42:22;11.20;99.90
34542;DHT22;20784;51.332;12.410;2023-04-25T09:44:52;11.10;99.90
34542;DHT22;20784;51.332;12.410;2023-04-25T09:47:17;11.10;99.90
34542;DHT22;20784;51.332;12.410;2023-04-25T09:49:44;11.00;99.90
34542;DHT22;20784;51.332;12.410;2023-04-25T09:52:14;10.90;99.90
34542;DHT22;20784;51.332;12.410;2023-04-25T09:54:40;10.80;99.90
34542;DHT22;20784;51.332;12.410;2023-04-25T09:57:20;10.80;99.90
34542;DHT22;20784;51.332;12.410;2023-04-25T09:59:47;10.80;99.90
34542;DHT22;20784;51.332;12.410;2023-04-25T10:02:18;10.70;99.90
34542;DHT22;20784;51.332;12.410;2023-04-25T10:04:48;10.70;99.90
34542;DHT22;20784;51.332;12.410;2023-04-25T10:07:14;10.80;99.90
34542;DHT22;20784;51.332;12.410;2023-04-25T10:09:40;10.90;99.90
34542;DHT22;20784;51.332;12.410;2023-04-25T10:12:07;11.10;99.90
34542;DHT22;20784;51.332;12.410;2023-04-25T10:14:33;11.10;99.90
34542;DHT22;20784;51.332;12.410;2023-04-25T10:17:00;11.10;99.90
34542;DHT22;20784;51.332;12.410;2023-04-25T10:19:27;11.10;99.90
34542;DHT22;20784;51.332;12.410;2023-04-25T10:21:55;11.10;99.90
34542;DHT22;20784;51.332;12.410;2023-04-25T10:24:21;11.00;99.90
34542;DHT22;20784;51.332;12.410;2023-04-25T10:26:48;11.00;99.90
34542;DHT22;20784;51.332;12.410;2023-04-25T10:29:22;11.00;99.90
34542;DHT22;20784;51.332;12.410;2023-04-25T10:31:50;10.90;99.90
34542;DHT22;20784;51.332;12.410;2023-04-25T10:34:16;10.90;99.90
34542;DHT22;20784;51.332;12.410;2023-04-25T10:36:43;11.00;99.90
34542;DHT22;20784;51.332;12.410;2023-04-25T10:39:25;11.00;99.90
34542;DHT22;20784;51.332;12.410;2023-04-25T10:42:10;11.00;99.90
34542;DHT22;20784;51.332;12.410;2023-04-25T10:44:37;11.10;99.90
34542;DHT22;20784;51.332;12.410;2023-04-25T10:47:06;11.30;99.90
34542;DHT22;20784;51.332;12.410;2023-04-25T10:49:33;11.20;99.90
34542;DHT22;20784;51.332;12.410;2023-04-25T10:52:15;11.10;99.90
34542;DHT22;20784;51.332;12.410;2023-04-25T11:00:07;10.80;99.90
34542;DHT22;20784;51.332;12.410;2023-04-25T11:02:53;10.70;99.90
34542;DHT22;20784;51.332;12.410;2023-04-25T11:07:55;10.70;99.90
34542;DHT22;20784;51.332;12.410;2023-04-25T11:10:30;10.70;99.90
34542;DHT22;20784;51.332;12.410;2023-04-25T11:12:56;10.70;99.90
34542;DHT22;20784;51.332;12.410;2023-04-25T11:15:23;10.70;99.90
34542;DHT22;20784;51.332;12.410;2023-04-25T11:17:51;10.60;99.90
34542;DHT22;20784;51.332;12.410;2023-04-25T11:20:17;10.60;99.90
34542;DHT22;20784;51.332;12.410;2023-04-25T11:22:45;10.70;99.90
34542;DHT22;20784;51.332;12.410;2023-04-25T11:25:12;10.80;99.90
34542;DHT22;20784;51.332;12.410;2023-04-25T11:27:59;10.80;99.90
34542;DHT22;20784;51.332;12.410;2023-04-25T11:30:26;10.80;99.90
34542;DHT22;20784;51.332;12.410;2023-04-25T11:32:52;10.70;99.90
34542;DHT22;20784;51.332;12.410;2023-04-25T11:35:19;10.80;99.90
34542;DHT22;20784;51.332;12.410;2023-04-25T11:37:46;10.80;99.90
34542;DHT22;20784;51.332;12.410;2023-04-25T11:40:12;10.70;99.90
34542;DHT22;20784;51.332;12.410;2023-04-25T11:42:45;10.60;99.90
34542;DHT22;20784;51.332;12.410;2023-04-25T11:45:12;10.50;99.90
34542;DHT22;20784;51.332;12.410;2023-04-25T11:47:38;10.40;99.90
34542;DHT22;20784;51.332;12.410;2023-04-25T11:50:05;10.60;99.90
34542;DHT22;20784;51.332;12.410;2023-04-25T11:52:46;10.50;99.90
34542;DHT22;20784;51.332;12.410;2023-04-25T11:55:19;10.80;99.90
34542;DHT22;20784;51.332;12.410;2023-04-25T11:57:50;10.70;99.90
34542;DHT22;20784;51.332;12.410;2023-04-25T12:00:20;10.80;99.90
34542;DHT22;20784;51.332;12.410;2023-04-25T12:02:51;10.80;99.90
34542;DHT22;20784;51.332;12.410;2023-04-25T12:05:17;10.80;99.90
34542;DHT22;20784;51.332;12.410;2023-04-25T12:07:43;10.60;99.90
34542;DHT22;20784;51.332;12.410;2023-04-25T12:10:12;10.60;99.90
34542;DHT22;20784;51.332;12.410;2023-04-25T12:12:41;10.70;99.90
34542;DHT22;20784;51.332;12.410;2023-04-25T12:15:17;10.70;99.90
34542;DHT22;20784;51.332;12.410;2023-04-25T12:17:48;10.80;99.90
34542;DHT22;20784;51.332;12.410;2023-04-25T12:20:19;10.80;99.90
34542;DHT22;20784;51.332;12.410;2023-04-25T12:22:51;10.80;99.90
34542;DHT22;20784;51.332;12.410;2023-04-25T12:25:39;10.80;99.90
34542;DHT22;20784;51.332;12.410;2023-04-25T12:31:00;11.10;99.90
34542;DHT22;20784;51.332;12.410;2023-04-25T12:33:35;11.20;99.90
34542;DHT22;20784;51.332;12.410;2023-04-25T12:36:01;11.30;99.90
34542;DHT22;20784;51.332;12.410;2023-04-25T12:38:38;11.40;99.90
34542;DHT22;20784;51.332;12.410;2023-04-25T12:41:04;11.40;99.90
34542;DHT22;20784;51.332;12.410;2023-04-25T12:43:32;11.20;99.90
34542;DHT22;20784;51.332;12.410;2023-04-25T12:45:58;11.30;99.90
34542;DHT22;20784;51.332;12.410;2023-04-25T12:48:23;11.30;99.90
34542;DHT22;20784;51.332;12.410;2023-04-25T12:50:50;11.30;99.90
34542;DHT22;20784;51.332;12.410;2023-04-25T12:53:20;11.10;99.90
34542;DHT22;20784;51.332;12.410;2023-04-25T12:55:48;10.90;99.90
34542;DHT22;20784;51.332;12.410;2023-04-25T12:58:18;10.80;99.90
34542;DHT22;20784;51.332;12.410;2023-04-25T13:00:46;10.60;99.90
34542;DHT22;20784;51.332;12.410;2023-04-25T13:03:13;10.50;99.90
34542;DHT22;20784;51.332;12.410;2023-04-25T13:05:39;10.40;99.90
34542;DHT22;20784;51.332;12.410;2023-04-25T13:08:05;10.20;99.90
34542;DHT22;20784;51.332;12.410;2023-04-25T13:10:31;10.20;99.90
34542;DHT22;20784;51.332;12.410;2023-04-25T13:12:59;10.30;99.90
34542;DHT22;20784;51.332;12.410;2023-04-25T13:15:24;10.40;99.90
34542;DHT22;20784;51.332;12.410;2023-04-25T13:17:50;10.40;99.90
34542;DHT22;20784;51.332;12.410;2023-04-25T13:20:15;10.40;99.90
34542;DHT22;20784;51.332;12.410;2023-04-25T13:22:42;10.40;99.90
34542;DHT22;20784;51.332;12.410;2023-04-25T13:25:08;10.40;99.90
34542;DHT22;20784;51.332;12.410;2023-04-25T13:27:34;10.50;99.90
34542;DHT22;20784;51.332;12.410;2023-04-25T13:30:01;10.30;99.90
34542;DHT22;20784;51.332;12.410;2023-04-25T13:32:30;10.30;99.90
34542;DHT22;20784;51.332;12.410;2023-04-25T13:34:55;10.40;99.90
34542;DHT22;20784;51.332;12.410;2023-04-25T13:37:21;10.50;99.90
34542;DHT22;20784;51.332;12.410;2023-04-25T13:39:49;10.50;99.90
34542;DHT22;20784;51.332;12.410;2023-04-25T13:42:15;10.80;99.90
34542;DHT22;20784;51.332;12.410;2023-04-25T13:44:41;11.00;99.90
34542;DHT22;20784;51.332;12.410;2023-04-25T13:47:06;11.00;99.90
34542;DHT22;20784;51.332;12.410;2023-04-25T13:49:32;11.40;99.90
34542;DHT22;20784;51.332;12.410;2023-04-25T13:51:57;11.70;99.90
34542;DHT22;20784;51.332;12.410;2023-04-25T13:54:23;12.00;99.90
34542;DHT22;20784;51.332;12.410;2023-04-25T13:56:49;12.10;99.90
34542;DHT22;20784;51.332;12.410;2023-04-25T13:59:15;12.00;99.90
34542;DHT22;20784;51.332;12.410;2023-04-25T14:01:41;11.90;99.90
34542;DHT22;20784;51.332;12.410;2023-04-25T14:04:08;12.00;99.90
34542;DHT22;20784;51.332;12.410;2023-04-25T14:06:34;11.80;99.90
34542;DHT22;20784;51.332;12.410;2023-04-25T14:09:00;12.00;99.90
34542;DHT22;20784;51.332;12.410;2023-04-25T14:11:26;12.10;99.90
34542;DHT22;20784;51.332;12.410;2023-04-25T14:13:52;12.20;99.90
34542;DHT22;20784;51.332;12.410;2023-04-25T14:16:17;12.20;99.90
34542;DHT22;20784;51.332;12.410;2023-04-25T14:18:43;12.20;99.90
34542;DHT22;20784;51.332;12.410;2023-04-25T14:21:09;12.00;99.90
34542;DHT22;20784;51.332;12.410;2023-04-25T14:23:35;11.90;99.90
34542;DHT22;20784;51.332;12.410;2023-04-25T14:26:00;11.70;99.90
34542;DHT22;20784;51.332;12.410;2023-04-25T14:28:26;11.60;99.90
34542;DHT22;20784;51.332;12.410;2023-04-25T14:30:51;11.40;99.90
34542;DHT22;20784;51.332;12.410;2023-04-25T14:33:17;11.30;99.90
34542;DHT22;20784;51.332;12.410;2023-04-25T14:35:42;11.30;99.90
34542;DHT22;20784;51.332;12.410;2023-04-25T14:38:08;11.30;99.90
34542;DHT22;20784;51.332;12.410;2023-04-25T14:40:33;11.30;99.90
34542;DHT22;20784;51.332;12.410;2023-04-25T14:42:59;11.30;99.90
34542;DHT22;20784;51.332;12.410;2023-04-25T14:45:24;11.30;99.90
34542;DHT22;20784;51.332;12.410;2023-04-25T14:47:50;11.30;99.90
34542;DHT22;20784;51.332;12.410;2023-04-25T14:50:16;11.30;99.90
34542;DHT22;20784;51.332;12.410;2023-04-25T14:52:41;11.40;99.90
34542;DHT22;20784;51.332;12.410;2023-04-25T14:55:08;11.40;99.90
34542;DHT22;20784;51.332;12.410;2023-04-25T14:57:36;11.50;99.90
34542;DHT22;20784;51.332;12.410;2023-04-25T15:00:02;11.50;99.90
34542;DHT22;20784;51.332;12.410;2023-04-25T15:02:30;11.40;99.90
34542;DHT22;20784;51.332;12.410;2023-04-25T15:04:56;11.40;99.90
34542;DHT22;20784;51.332;12.410;2023-04-25T15:07:21;11.30;99.90
34542;DHT22;20784;51.332;12.410;2023-04-25T15:09:48;11.30;99.90
34542;DHT22;20784;51.332;12.410;2023-04-25T15:12:13;11.40;99.90
34542;DHT22;20784;51.332;12.410;2023-04-25T15:14:39;11.20;99.90
34542;DHT22;20784;51.332;12.410;2023-04-25T15:17:05;11.20;99.90
34542;DHT22;20784;51.332;12.410;2023-04-25T15:19:31;11.10;99.90
34542;DHT22;20784;51.332;12.410;2023-04-25T15:21:57;11.10;99.90
34542;DHT22;20784;51.332;12.410;2023-04-25T15:24:25;11.00;99.90
34542;DHT22;20784;51.332;12.410;2023-04-25T15:26:51;10.80;99.90
34542;DHT22;20784;51.332;12.410;2023-04-25T15:29:17;10.90;99.90
34542;DHT22;20784;51.332;12.410;2023-04-25T15:31:42;11.00;99.90
34542;DHT22;20784;51.332;12.410;2023-04-25T15:34:08;11.00;99.90
34542;DHT22;20784;51.332;12.410;2023-04-25T15:36:33;11.10;99.90
34542;DHT22;20784;51.332;12.410;2023-04-25T15:38:59;11.00;99.90
34542;DHT22;20784;51.332;12.410;2023-04-25T15:41:24;11.10;99.90
34542;DHT22;20784;51.332;12.410;2023-04-25T15:43:52;11.10;99.90
34542;DHT22;20784;51.332;12.410;2023-04-25T15:46:19;11.20;99.90